createdAt,value
2022-11-21T00:03:07.236Z,99842.75
2022-11-21T00:06:16.225Z,99844.25
2022-11-21T00:09:31.207Z,99838.81
2022-11-21T00:12:39.777Z,99828.69
2022-11-21T00:15:48.223Z,99824.28
2022-11-21T00:19:10.194Z,99827.00
2022-11-21T00:22:18.213Z,99833.56
2022-11-21T00:25:26.701Z,99818.22
2022-11-21T00:28:35.220Z,99816.59
2022-11-21T00:31:50.203Z,99819.53
2022-11-21T00:34:58.215Z,99811.16
2022-11-21T00:38:06.811Z,99805.31
2022-11-21T00:41:15.181Z,99800.28
2022-11-21T00:44:30.229Z,99801.78
2022-11-21T00:47:38.763Z,99802.13
2022-11-21T00:50:56.183Z,99802.59
2022-11-21T00:53:57.990Z,99811.97
2022-11-21T00:57:13.202Z,99810.19
2022-11-21T01:00:22.182Z,99794.19
2022-11-21T01:03:39.198Z,99790.50
2022-11-21T01:06:47.773Z,99797.53
2022-11-21T01:09:56.187Z,99802.16
2022-11-21T01:13:04.840Z,99800.38
2022-11-21T01:16:21.193Z,99789.28
2022-11-21T01:19:36.166Z,99787.81
2022-11-21T01:22:44.760Z,99785.06
2022-11-21T01:25:53.165Z,99796.84
2022-11-21T01:29:08.188Z,99786.94
2022-11-21T01:32:23.194Z,99786.94
2022-11-21T01:35:38.221Z,99786.38
2022-11-21T01:38:48.203Z,99784.34
2022-11-21T01:41:56.789Z,99788.00
2022-11-21T01:45:49.180Z,99771.19
2022-11-21T01:49:12.413Z,99766.53
2022-11-21T01:52:33.176Z,99764.19
2022-11-21T01:55:48.177Z,99769.16
2022-11-21T01:58:54.275Z,99778.59
2022-11-21T02:02:13.195Z,99772.97
2022-11-21T02:05:26.010Z,99761.03
2022-11-21T02:08:41.185Z,99768.88
2022-11-21T02:11:54.526Z,99781.50
2022-11-21T02:15:09.177Z,99779.56
2022-11-21T02:18:24.186Z,99783.47
2022-11-21T02:22:22.137Z,99768.53
2022-11-21T02:25:33.201Z,99747.44
2022-11-21T02:28:49.184Z,99756.16
2022-11-21T02:31:50.996Z,99756.94
2022-11-21T02:35:06.171Z,99750.97
2022-11-21T02:38:22.652Z,99741.84
2022-11-21T02:41:40.185Z,99745.22
2022-11-21T02:44:56.179Z,99746.16
2022-11-21T02:48:12.193Z,99740.56
2022-11-21T02:51:14.031Z,99747.19
2022-11-21T02:54:29.508Z,99750.50
2022-11-21T02:57:38.164Z,99756.63
2022-11-21T03:00:53.270Z,99760.25
2022-11-21T03:03:55.110Z,99760.62
2022-11-21T03:07:10.210Z,99763.84
2022-11-21T03:10:12.525Z,99772.44
2022-11-21T03:13:27.164Z,99767.88
2022-11-21T03:16:28.960Z,99764.91
2022-11-21T03:19:51.213Z,99760.09
2022-11-21T03:23:06.168Z,99739.78
2022-11-21T03:26:14.643Z,99741.72
2022-11-21T03:29:29.153Z,99741.09
2022-11-21T03:32:30.908Z,99746.19
2022-11-21T03:35:46.179Z,99742.13
2022-11-21T03:38:54.167Z,99740.63
2022-11-21T03:42:02.823Z,99730.38
2022-11-21T03:45:17.175Z,99726.63
2022-11-21T03:48:25.157Z,99722.75
2022-11-21T03:51:41.156Z,99713.63
2022-11-21T03:54:49.694Z,99721.38
2022-11-21T03:57:58.193Z,99713.13
2022-11-21T04:01:13.224Z,99721.03
2022-11-21T04:04:15.280Z,99714.69
2022-11-21T04:07:30.237Z,99717.34
2022-11-21T04:10:45.185Z,99719.34
2022-11-21T04:13:53.164Z,99728.84
2022-11-21T04:17:15.180Z,99721.16
2022-11-21T04:20:30.191Z,99714.75
2022-11-21T04:23:38.699Z,99705.94
2022-11-21T04:26:53.177Z,99700.19
2022-11-21T04:30:02.214Z,99711.87
2022-11-21T04:33:10.166Z,99701.91
2022-11-21T04:36:18.638Z,99696.53
2022-11-21T04:39:33.155Z,99696.69
2022-11-21T04:42:53.177Z,99700.34
2022-11-21T04:46:08.751Z,99696.44
2022-11-21T04:49:17.173Z,99691.72
2022-11-21T04:52:25.732Z,99690.72
2022-11-21T04:55:40.188Z,99684.38
2022-11-21T04:58:43.468Z,99680.16
2022-11-21T05:01:58.191Z,99683.25
2022-11-21T05:05:00.154Z,99682.81
2022-11-21T05:08:15.164Z,99679.13
2022-11-21T05:11:30.137Z,99679.59
2022-11-21T05:14:31.872Z,99671.09
2022-11-21T05:17:47.195Z,99686.34
2022-11-21T05:20:56.440Z,99681.09
2022-11-21T05:24:11.171Z,99690.34
2022-11-21T05:27:19.160Z,99691.41
2022-11-21T05:30:34.218Z,99681.19
2022-11-21T05:33:49.180Z,99675.13
2022-11-21T05:36:57.725Z,99676.38
2022-11-21T05:40:13.161Z,99675.25
2022-11-21T05:43:14.927Z,99660.25
2022-11-21T05:46:32.150Z,99664.16
2022-11-21T05:49:40.639Z,99664.75
2022-11-21T05:52:55.132Z,99662.34
2022-11-21T05:56:03.197Z,99652.84
2022-11-21T05:59:18.140Z,99661.41
2022-11-21T06:02:33.166Z,99667.59
2022-11-21T06:05:41.138Z,99659.44
2022-11-21T06:08:56.175Z,99664.25
2022-11-21T06:11:57.919Z,99667.59
2022-11-21T06:15:14.152Z,99671.81
2022-11-21T06:18:29.158Z,99670.47
2022-11-21T06:21:37.380Z,99677.09
2022-11-21T06:24:52.164Z,99667.06
2022-11-21T06:28:07.152Z,99664.00
2022-11-21T06:31:28.135Z,99673.34
2022-11-21T06:34:36.151Z,99668.78
2022-11-21T06:37:45.374Z,99675.53
2022-11-21T06:40:56.166Z,99679.28
2022-11-21T06:44:11.150Z,99680.91
2022-11-21T06:47:26.169Z,99690.72
2022-11-21T06:50:34.143Z,99693.94
2022-11-21T06:53:42.800Z,99688.56
2022-11-21T06:56:59.146Z,99709.97
2022-11-21T07:00:01.004Z,99701.28
2022-11-21T07:03:16.153Z,99715.69
2022-11-21T07:06:31.164Z,99709.34
2022-11-21T07:09:34.134Z,99718.97
2022-11-21T07:12:49.391Z,99720.25
2022-11-21T07:16:12.143Z,99722.88
2022-11-21T07:19:27.364Z,99722.41
2022-11-21T07:22:35.710Z,99714.81
2022-11-21T07:25:44.148Z,99724.19
2022-11-21T07:29:00.132Z,99713.28
2022-11-21T07:32:15.172Z,99709.97
2022-11-21T07:35:30.159Z,99713.28
2022-11-21T07:38:45.155Z,99720.72
2022-11-21T07:42:02.468Z,99716.47
2022-11-21T07:45:04.783Z,99730.47
2022-11-21T07:48:19.138Z,99721.97
2022-11-21T07:51:34.158Z,99724.03
2022-11-21T07:54:49.272Z,99722.75
2022-11-21T07:58:09.131Z,99728.84
2022-11-21T08:01:17.291Z,99735.63
2022-11-21T08:04:33.150Z,99731.72
2022-11-21T08:07:48.146Z,99734.97
2022-11-21T08:10:50.228Z,99740.72
2022-11-21T08:14:05.129Z,99737.22
2022-11-21T08:17:21.496Z,99748.13
2022-11-21T08:20:37.478Z,99737.31
2022-11-21T08:23:53.917Z,99740.06
2022-11-21T08:26:56.773Z,99747.50
2022-11-21T08:30:17.133Z,99744.06
2022-11-21T08:33:25.184Z,99752.62
2022-11-21T08:36:33.921Z,99750.00
2022-11-21T08:39:49.120Z,99755.78
2022-11-21T08:43:09.637Z,99756.87
2022-11-21T08:46:17.821Z,99760.25
2022-11-21T08:49:32.232Z,99760.09
2022-11-21T08:52:34.025Z,99769.69
2022-11-21T08:55:49.121Z,99761.94
2022-11-21T08:58:57.111Z,99769.22
2022-11-21T09:02:16.528Z,99767.31
2022-11-21T09:05:26.025Z,99768.75
2022-11-21T09:08:36.132Z,99773.00
2022-11-21T09:11:51.140Z,99770.19
2022-11-21T09:15:06.108Z,99769.72
2022-11-21T09:18:22.172Z,99765.72
2022-11-21T09:21:44.119Z,99758.59
2022-11-21T09:24:52.121Z,99748.41
2022-11-21T09:28:09.113Z,99760.16
2022-11-21T09:31:12.545Z,99753.44
2022-11-21T09:34:29.270Z,99754.47
2022-11-21T09:37:38.071Z,99741.34
2022-11-21T09:48:57.127Z,99744.50
2022-11-21T09:52:06.473Z,99749.53
2022-11-21T09:55:42.117Z,99751.50
2022-11-21T09:59:25.112Z,99755.84
2022-11-21T10:02:34.643Z,99755.34
2022-11-21T10:05:48.112Z,99740.97
2022-11-21T10:17:00.127Z,99751.09
2022-11-21T10:24:04.109Z,99746.56
2022-11-21T10:31:16.119Z,99739.75
2022-11-21T10:34:36.148Z,99732.97
2022-11-21T10:45:38.188Z,99712.81
2022-11-21T10:49:13.541Z,99709.66
2022-11-21T10:52:32.092Z,99705.22
2022-11-21T10:55:40.240Z,99712.72
2022-11-21T10:59:00.171Z,99704.53
2022-11-21T11:02:21.103Z,99707.28
2022-11-21T11:05:31.408Z,99707.28
2022-11-21T11:08:57.276Z,99709.13
2022-11-21T11:12:26.594Z,99708.56
2022-11-21T11:15:35.097Z,99708.31
2022-11-21T11:18:53.664Z,99706.78
2022-11-21T11:22:08.087Z,99696.47
2022-11-21T11:25:16.735Z,99698.34
2022-11-21T11:28:32.099Z,99693.03
2022-11-21T11:31:50.556Z,99690.69
2022-11-21T11:35:13.116Z,99681.19
2022-11-21T11:38:22.108Z,99675.94
2022-11-21T11:41:48.680Z,99673.84
2022-11-21T11:45:18.120Z,99666.69
2022-11-21T11:48:26.098Z,99664.84
2022-11-21T11:51:54.112Z,99660.09
2022-11-21T11:55:15.296Z,99654.25
2022-11-21T11:58:34.214Z,99653.22
2022-11-21T12:02:12.026Z,99646.81
2022-11-21T12:05:36.105Z,99647.91
2022-11-21T12:08:52.971Z,99645.25
2022-11-21T12:12:12.101Z,99634.63
2022-11-21T12:15:48.088Z,99638.06
2022-11-21T12:19:06.102Z,99619.22
2022-11-21T12:22:21.347Z,99619.00
2022-11-21T12:25:40.119Z,99608.62
2022-11-21T12:29:03.097Z,99609.41
2022-11-21T12:32:30.100Z,99612.06
2022-11-21T12:36:16.640Z,99617.66
2022-11-21T12:39:34.224Z,99611.53
2022-11-21T12:43:14.079Z,99608.62
2022-11-21T12:46:28.641Z,99605.72
2022-11-21T12:49:50.533Z,99605.47
2022-11-21T12:53:37.106Z,99603.34
2022-11-21T12:56:49.598Z,99603.31
2022-11-21T13:00:24.089Z,99597.78
2022-11-21T13:04:01.114Z,99605.19
2022-11-21T13:07:04.898Z,99605.97
2022-11-21T13:10:22.101Z,99593.50
2022-11-21T13:13:31.335Z,99603.84
2022-11-21T13:16:56.292Z,99610.22
2022-11-21T13:20:33.815Z,99612.34
2022-11-21T13:23:49.092Z,99613.97
2022-11-21T13:27:01.115Z,99616.88
2022-11-21T13:30:16.103Z,99611.31
2022-11-21T13:33:36.791Z,99607.84
2022-11-21T13:36:52.102Z,99604.13
2022-11-21T13:40:33.089Z,99609.97
2022-11-21T13:43:41.086Z,99602.81
2022-11-21T13:47:07.553Z,99605.47
2022-11-21T13:50:31.121Z,99611.31
2022-11-21T13:54:08.076Z,99609.69
2022-11-21T13:57:26.877Z,99620.84
2022-11-21T14:00:46.079Z,99623.50
2022-11-21T14:04:21.078Z,99629.38
2022-11-21T14:07:44.192Z,99623.81
2022-11-21T14:10:54.865Z,99615.56
2022-11-21T14:14:03.128Z,99621.66
2022-11-21T14:17:26.709Z,99608.94
2022-11-21T14:20:58.092Z,99616.34
2022-11-21T14:24:16.552Z,99622.44
2022-11-21T14:27:40.873Z,99613.97
2022-11-21T14:30:46.844Z,99615.28
2022-11-21T14:34:05.074Z,99613.94
2022-11-21T14:37:14.090Z,99604.94
2022-11-21T14:40:24.239Z,99608.91
2022-11-21T14:43:40.089Z,99610.47
2022-11-21T14:46:56.077Z,99624.53
2022-11-21T14:50:07.406Z,99629.81
2022-11-21T14:53:22.065Z,99637.25
2022-11-21T14:56:27.306Z,99633.00
2022-11-21T14:59:47.069Z,99636.72
2022-11-21T15:02:58.093Z,99631.38
2022-11-21T15:06:17.092Z,99629.50
2022-11-21T15:13:11.255Z,99645.66
2022-11-21T15:16:29.115Z,99639.00
2022-11-21T15:19:32.250Z,99649.31
2022-11-21T15:22:55.067Z,99637.66
2022-11-21T15:26:00.978Z,99644.56
2022-11-21T15:29:27.346Z,99647.78
2022-11-21T15:32:36.068Z,99652.56
2022-11-21T15:35:55.098Z,99652.84
2022-11-21T15:39:08.055Z,99652.63
2022-11-21T15:42:42.494Z,99660.56
2022-11-21T15:46:01.034Z,99664.56
2022-11-21T15:49:33.855Z,99659.25
2022-11-21T15:52:54.104Z,99672.28
2022-11-21T15:56:02.688Z,99672.56
2022-11-21T15:59:11.093Z,99678.69
2022-11-21T16:02:19.718Z,99674.94
2022-11-21T16:05:28.074Z,99664.88
2022-11-21T16:08:43.737Z,99667.53
2022-11-21T16:11:53.318Z,99667.53
2022-11-21T16:15:02.078Z,99668.88
2022-11-21T16:18:17.050Z,99663.31
2022-11-21T16:21:26.560Z,99660.66
2022-11-21T16:24:41.072Z,99644.97
2022-11-21T16:27:56.180Z,99642.06
2022-11-21T16:31:07.159Z,99644.44
2022-11-21T16:34:19.588Z,99649.75
2022-11-21T16:37:34.170Z,99639.41
2022-11-21T16:40:49.073Z,99629.84
2022-11-21T16:44:05.009Z,99640.47
2022-11-21T16:47:14.876Z,99637.81
2022-11-21T16:50:30.919Z,99630.91
2022-11-21T16:53:39.071Z,99643.91
2022-11-21T16:56:47.648Z,99640.97
2022-11-21T16:59:58.171Z,99644.66
2022-11-21T17:03:14.054Z,99646.22
2022-11-21T17:06:32.099Z,99644.09
2022-11-21T17:09:47.422Z,99636.91
2022-11-21T17:12:55.655Z,99639.53
2022-11-21T17:16:14.310Z,99652.47
2022-11-21T17:19:30.508Z,99657.47
2022-11-21T17:22:52.168Z,99648.72
2022-11-21T17:26:00.380Z,99652.41
2022-11-21T17:29:09.524Z,99661.97
2022-11-21T17:32:18.487Z,99662.53
2022-11-21T17:35:26.981Z,99668.66
2022-11-21T17:38:35.413Z,99669.44
2022-11-21T17:41:51.129Z,99664.13
2022-11-21T17:45:06.482Z,99662.81
2022-11-21T17:48:21.470Z,99669.97
2022-11-21T17:51:32.377Z,99667.03
2022-11-21T17:54:47.447Z,99669.97
2022-11-21T17:57:50.459Z,99669.41
2022-11-21T18:01:07.150Z,99661.94
2022-11-21T18:04:22.197Z,99671.75
2022-11-21T18:07:30.997Z,99667.19
2022-11-21T18:10:44.005Z,99677.19
2022-11-21T18:13:53.802Z,99676.13
2022-11-21T18:17:02.374Z,99668.16
2022-11-21T18:20:11.829Z,99672.34
2022-11-21T18:23:34.452Z,99663.41
2022-11-21T18:26:38.522Z,99661.31
2022-11-21T18:29:53.463Z,99659.72
2022-11-21T18:33:02.214Z,99669.56
2022-11-21T18:36:13.474Z,99647.81
2022-11-21T18:39:28.666Z,99658.19
2022-11-21T18:42:39.468Z,99661.38
2022-11-21T18:45:57.847Z,99661.09
2022-11-21T18:49:13.406Z,99657.16
2022-11-21T18:52:15.604Z,99660.34
2022-11-21T18:55:31.022Z,99660.34
2022-11-21T18:58:42.312Z,99650.53
2022-11-21T19:01:58.485Z,99660.03
2022-11-21T19:05:16.289Z,99653.16
2022-11-21T19:08:35.426Z,99653.66
2022-11-21T19:11:50.445Z,99654.97
2022-11-21T19:14:52.802Z,99657.59
2022-11-21T19:18:08.478Z,99649.63
2022-11-21T19:21:30.428Z,99653.09
2022-11-21T19:24:45.429Z,99650.19
2022-11-21T19:28:00.457Z,99654.16
2022-11-21T19:31:05.463Z,99649.63
2022-11-21T19:34:21.531Z,99662.88
2022-11-21T19:37:23.394Z,99654.97
2022-11-21T19:40:38.084Z,99661.34
2022-11-21T19:43:56.486Z,99670.38
2022-11-21T19:46:58.842Z,99662.44
2022-11-21T19:50:15.072Z,99668.28
2022-11-21T19:53:24.685Z,99659.84
2022-11-21T19:56:33.491Z,99659.84
2022-11-21T19:59:48.053Z,99671.22
2022-11-21T20:03:03.488Z,99666.72
2022-11-21T20:06:27.419Z,99670.44
2022-11-21T20:09:36.486Z,99672.03
2022-11-21T20:12:52.446Z,99680.00
2022-11-21T20:16:07.508Z,99678.12
2022-11-21T20:19:18.048Z,99681.84
2022-11-21T20:22:40.518Z,99696.66
2022-11-21T20:25:52.990Z,99689.53
2022-11-21T20:29:02.056Z,99685.53
2022-11-21T20:32:17.047Z,99679.94
2022-11-21T20:35:32.494Z,99676.47
2022-11-21T20:38:42.496Z,99676.16
2022-11-21T20:41:57.436Z,99670.88
2022-11-21T20:48:35.786Z,99670.38
2022-11-21T20:53:31.260Z,99669.03
2022-11-21T20:55:26.336Z,99664.25
2022-11-21T20:58:33.383Z,99671.94
2022-11-21T21:01:50.856Z,99662.88
2022-11-21T21:04:59.949Z,99665.00
2022-11-21T21:08:15.059Z,99664.00
2022-11-21T21:11:50.297Z,99657.06
2022-11-21T21:14:54.622Z,99653.41
2022-11-21T21:18:03.049Z,99651.31
2022-11-21T21:21:30.041Z,99647.59
2022-11-21T21:24:45.069Z,99638.56
2022-11-21T21:27:53.618Z,99633.00
2022-11-21T21:31:02.033Z,99630.06
2022-11-21T21:34:10.607Z,99618.69
2022-11-21T21:37:26.023Z,99612.03
2022-11-21T21:40:41.044Z,99609.91
2022-11-21T21:43:50.704Z,99605.63
2022-11-21T21:47:05.054Z,99607.75
2022-11-21T21:50:14.389Z,99605.09
2022-11-21T21:53:30.038Z,99607.47
2022-11-21T21:56:38.599Z,99611.16
2022-11-21T21:59:47.032Z,99611.94
2022-11-21T22:03:02.049Z,99611.91
2022-11-21T22:06:05.951Z,99616.19
2022-11-21T22:09:21.066Z,99623.56
2022-11-21T22:12:22.912Z,99618.81
2022-11-21T22:15:38.022Z,99616.12
2022-11-21T22:18:40.467Z,99623.03
2022-11-21T22:22:02.043Z,99618.72
2022-11-21T22:25:10.523Z,99631.69
2022-11-21T22:28:19.055Z,99627.44
2022-11-21T22:31:30.077Z,99627.69
2022-11-21T22:34:45.022Z,99634.84
2022-11-21T22:37:50.071Z,99636.97
2022-11-21T22:41:13.026Z,99640.94
2022-11-21T22:44:14.796Z,99655.22
2022-11-21T22:47:30.049Z,99616.97
2022-11-21T22:50:43.824Z,99639.78
2022-11-21T22:53:56.034Z,99636.84
2022-11-21T22:57:11.068Z,99639.97
2022-11-21T23:00:19.640Z,99633.06
2022-11-21T23:03:37.041Z,99641.19
2022-11-21T23:06:45.605Z,99638.53
2022-11-21T23:10:00.051Z,99631.34
2022-11-21T23:13:08.594Z,99634.00
2022-11-21T23:16:24.071Z,99626.38
2022-11-21T23:19:32.841Z,99614.22
2022-11-21T23:22:48.038Z,99607.84
2022-11-21T23:25:56.689Z,99608.09
2022-11-21T23:29:08.654Z,99600.41
2022-11-21T23:32:17.695Z,99592.19
2022-11-21T23:35:32.031Z,99591.16
2022-11-21T23:38:41.029Z,99582.44
2022-11-21T23:41:49.596Z,99573.94
2022-11-21T23:44:58.032Z,99583.50
2022-11-21T23:48:06.772Z,99590.91
2022-11-21T23:51:15.018Z,99578.22
2022-11-21T23:54:23.578Z,99581.97
2022-11-21T23:57:32.019Z,99570.28
